Аэропорт
Нижневартовск (USNN)

 USNN / NJC
ЗЦ Екатеринбург
Тюмень (USTV)
Тюмень (USTV)
 60.94930, 76.48360  / 177 ft

 USNN 091830Z 21003MPS CAVOK M03/M08 Q1018 R21/0///65 NOSIG RMK QFE759
 TAF USNN 091400Z 0915/1015 23006G13MPS 9999 BKN030 TEMPO 0915/0917 6000 -SHSN BKN020CB BECMG 0917/0918 20005G11MPS
USNN_j_0220
показать схемы
Название сценария Тип сценария Flight Simulator 9 Flight Simulator X Prepar3D v2 Prepar3D v3 Prepar3D v4 xPlane
Nizhnevartovsk USNN (P3Dv4.4+) бесплатный


2020 © VATRUS division (Privacy Policy)